Time;durP1;ratioP1;P1;durP2;ratioP2;P2;SDS_P1;SDS_P2;PMS_P1;PMS_P2;Temp;Humidity;BMP_temperature;BMP_pressure;BME280_temperature;BME280_humidity;BME280_pressure;Samples;Min_cycle;Max_cycle;Signal;HPM_P1;HPM_P2
2021/05/27 00:01:10;;;;;;;0.63;0.63;;;9.60;99.90;;;;;;4895479;28;20410;-74
2021/05/27 00:03:36;;;;;;;0.80;0.80;;;9.50;99.90;;;;;;4885860;29;20896;-76
2021/05/27 00:06:01;;;;;;;0.63;0.63;;;9.50;99.90;;;;;;4915842;28;20505;-77
2021/05/27 00:08:27;;;;;;;0.73;0.73;;;9.50;99.90;;;;;;4914021;29;20428;-76
2021/05/27 00:10:53;;;;;;;0.65;0.65;;;9.50;99.90;;;;;;4918822;28;20398;-75
2021/05/27 00:13:18;;;;;;;0.70;0.70;;;9.40;99.90;;;;;;4906314;28;21018;-76
2021/05/27 00:15:44;;;;;;;0.60;0.60;;;9.40;99.90;;;;;;4919992;28;20495;-77
2021/05/27 00:18:10;;;;;;;0.60;0.60;;;9.40;99.90;;;;;;4988124;28;20778;-77
2021/05/27 00:20:36;;;;;;;0.80;0.80;;;9.30;99.90;;;;;;4895966;28;20424;-74
2021/05/27 00:23:01;;;;;;;0.80;0.80;;;9.30;99.90;;;;;;4899232;28;20410;-74
2021/05/27 00:25:27;;;;;;;0.80;0.80;;;9.30;99.90;;;;;;4917687;28;20414;-76
2021/05/27 00:27:53;;;;;;;0.80;0.80;;;9.30;99.90;;;;;;4904514;28;20469;-75
2021/05/27 00:30:19;;;;;;;0.90;0.90;;;9.20;99.90;;;;;;4910369;28;20422;-76
2021/05/27 00:32:45;;;;;;;0.80;0.80;;;9.20;99.90;;;;;;4896353;28;20462;-76
2021/05/27 00:35:11;;;;;;;0.80;0.80;;;9.20;99.90;;;;;;4899615;28;20435;-76
2021/05/27 00:37:36;;;;;;;0.75;0.75;;;9.20;99.90;;;;;;4905015;29;20400;-77
2021/05/27 00:40:04;;;;;;;1.10;1.00;;;9.20;99.90;;;;;;4980797;28;21189;-77
2021/05/27 00:42:30;;;;;;;0.70;0.70;;;9.10;99.90;;;;;;4913220;28;20419;-76
2021/05/27 00:45:09;;;;;;;1.60;1.02;;;9.10;99.90;;;;;;4914499;29;20399;-76
2021/05/27 00:47:35;;;;;;;0.87;0.87;;;9.10;99.90;;;;;;4895950;29;20499;-78
2021/05/27 00:50:01;;;;;;;0.85;0.85;;;9.10;99.90;;;;;;4904932;28;20825;-77
2021/05/27 00:52:27;;;;;;;0.93;0.93;;;9.00;99.90;;;;;;4901282;28;20534;-76
2021/05/27 00:54:54;;;;;;;0.90;0.90;;;9.10;99.90;;;;;;4918748;28;20815;-77
2021/05/27 00:57:30;;;;;;;0.80;0.80;;;9.00;99.90;;;;;;4980844;28;20507;-75
2021/05/27 00:59:56;;;;;;;0.90;0.90;;;9.00;99.90;;;;;;4925695;28;20443;-79
2021/05/27 01:02:22;;;;;;;1.10;1.10;;;8.90;99.90;;;;;;4910774;28;20497;-79
2021/05/27 01:04:48;;;;;;;0.90;0.90;;;8.90;99.90;;;;;;4929817;28;20421;-77
2021/05/27 01:07:14;;;;;;;1.05;1.05;;;9.00;99.90;;;;;;4913910;28;20433;-75
2021/05/27 01:09:41;;;;;;;1.00;1.00;;;9.00;99.90;;;;;;4893935;28;20424;-76
2021/05/27 01:12:08;;;;;;;0.80;0.80;;;8.90;99.90;;;;;;4992856;28;20400;-77
2021/05/27 01:17:18;;;;;;;1.10;1.00;;;8.80;99.90;;;;;;4984564;28;20426;-79
2021/05/27 01:19:45;;;;;;;0.82;0.82;;;8.80;99.90;;;;;;4900247;28;20414;-74
2021/05/27 01:22:12;;;;;;;0.90;0.90;;;8.80;99.90;;;;;;4914471;28;20411;-78
2021/05/27 01:24:37;;;;;;;1.00;1.00;;;8.80;99.90;;;;;;4910252;28;20416;-78
2021/05/27 01:27:03;;;;;;;4.50;1.17;;;8.80;99.90;;;;;;4914533;28;20480;-76
2021/05/27 01:29:29;;;;;;;1.00;1.00;;;8.70;99.90;;;;;;4914859;28;20403;-77
2021/05/27 01:31:57;;;;;;;1.08;1.02;;;8.70;99.90;;;;;;4928570;28;20500;-76
2021/05/27 01:34:23;;;;;;;1.13;1.13;;;8.70;99.90;;;;;;4907608;28;20443;-74
2021/05/27 01:36:51;;;;;;;1.00;1.00;;;8.70;99.90;;;;;;4977790;28;20404;-76
2021/05/27 01:39:18;;;;;;;1.00;1.00;;;8.70;99.90;;;;;;4910104;28;20504;-81
2021/05/27 01:41:44;;;;;;;0.90;0.90;;;8.60;99.90;;;;;;4897050;28;20571;-76
2021/05/27 01:44:10;;;;;;;1.00;1.00;;;8.60;99.90;;;;;;4999380;28;20430;-76
2021/05/27 01:46:36;;;;;;;0.83;0.83;;;8.60;99.90;;;;;;4895955;28;20409;-77
2021/05/27 01:49:03;;;;;;;0.90;0.90;;;8.60;99.90;;;;;;4910310;28;20400;-76
2021/05/27 01:51:29;;;;;;;1.10;1.10;;;8.60;99.90;;;;;;4894167;28;20414;-77
2021/05/27 01:53:55;;;;;;;0.95;0.95;;;8.50;99.90;;;;;;4894393;28;20533;-80
2021/05/27 01:56:21;;;;;;;1.00;1.00;;;8.50;99.90;;;;;;4935013;28;20512;-77
2021/05/27 01:58:47;;;;;;;1.00;1.00;;;8.60;99.90;;;;;;5009385;28;20758;-77
2021/05/27 02:01:13;;;;;;;1.00;1.00;;;8.50;99.90;;;;;;4925362;28;20431;-76
2021/05/27 02:03:42;;;;;;;1.00;1.00;;;8.50;99.90;;;;;;4908341;28;20918;-77
2021/05/27 02:06:12;;;;;;;1.08;1.08;;;8.50;99.90;;;;;;4918350;28;20409;-76
2021/05/27 02:09:07;;;;;;;1.00;1.00;;;8.40;99.90;;;;;;4908912;28;20433;-76
2021/05/27 02:11:25;;;;;;;1.33;1.23;;;8.40;99.90;;;;;;4974904;28;20952;-80
2021/05/27 02:13:51;;;;;;;1.25;1.20;;;8.40;99.90;;;;;;4984479;28;20513;-78
2021/05/27 02:16:18;;;;;;;1.03;1.03;;;8.50;99.90;;;;;;4916512;29;20791;-74
2021/05/27 02:18:46;;;;;;;1.17;1.17;;;8.40;99.90;;;;;;4912746;28;20415;-76
2021/05/27 02:21:12;;;;;;;1.40;1.30;;;8.40;99.90;;;;;;4906625;28;20784;-75
2021/05/27 02:23:38;;;;;;;1.27;1.17;;;8.30;99.90;;;;;;4837365;28;20408;-77
2021/05/27 02:26:08;;;;;;;1.35;1.25;;;8.30;99.90;;;;;;4905234;28;20831;-77
2021/05/27 02:28:47;;;;;;;1.15;1.02;;;8.30;99.90;;;;;;4903661;28;20447;-76
2021/05/27 02:31:14;;;;;;;1.20;1.20;;;8.30;99.90;;;;;;4914063;28;20912;-77
2021/05/27 02:33:45;;;;;;;1.20;1.20;;;8.20;99.90;;;;;;4914223;28;20434;-77
2021/05/27 02:36:31;;;;;;;1.33;1.25;;;8.20;99.90;;;;;;4938297;28;20406;-73
2021/05/27 02:38:58;;;;;;;1.00;1.00;;;8.20;99.90;;;;;;4984492;28;20390;-77
2021/05/27 02:41:27;;;;;;;1.60;1.50;;;8.20;99.90;;;;;;4897748;29;20421;-75
2021/05/27 02:43:55;;;;;;;1.35;1.25;;;8.20;99.90;;;;;;4894190;28;20509;-76
2021/05/27 02:46:24;;;;;;;1.10;1.10;;;8.10;99.90;;;;;;4908233;28;20438;-77
2021/05/27 02:48:54;;;;;;;1.40;1.30;;;8.10;99.90;;;;;;4915936;28;20452;-76
2021/05/27 02:51:19;;;;;;;1.30;1.20;;;8.20;99.90;;;;;;4901542;28;20419;-73
2021/05/27 02:53:46;;;;;;;1.40;1.30;;;8.20;99.90;;;;;;4892275;28;21431;-83
2021/05/27 02:56:13;;;;;;;1.30;1.30;;;8.10;99.90;;;;;;4910870;29;20433;-75
2021/05/27 02:58:42;;;;;;;1.60;1.50;;;8.10;99.90;;;;;;4989759;28;20992;-75
2021/05/27 03:01:08;;;;;;;1.50;1.40;;;8.10;99.90;;;;;;4893600;28;20411;-77
2021/05/27 03:03:37;;;;;;;1.27;1.27;;;8.20;99.90;;;;;;4894462;28;20769;-78
2021/05/27 03:06:04;;;;;;;1.50;1.40;;;8.10;99.90;;;;;;4915865;28;20405;-76
2021/05/27 03:08:32;;;;;;;1.60;1.50;;;8.10;99.90;;;;;;4986716;28;20468;-79
2021/05/27 03:10:58;;;;;;;1.50;1.40;;;8.10;99.90;;;;;;4965478;28;20416;-78
2021/05/27 03:13:25;;;;;;;1.50;1.40;;;8.10;99.90;;;;;;4894262;28;20406;-76
2021/05/27 03:15:51;;;;;;;1.60;1.50;;;8.10;99.90;;;;;;4961880;28;20460;-76
2021/05/27 03:18:25;;;;;;;1.67;1.58;;;8.20;99.90;;;;;;4910084;28;20439;-79
2021/05/27 03:20:51;;;;;;;1.42;1.33;;;8.20;99.90;;;;;;4976594;28;20438;-75
2021/05/27 03:23:17;;;;;;;1.60;1.50;;;8.20;99.90;;;;;;4909102;28;20457;-76
2021/05/27 03:25:43;;;;;;;1.95;1.85;;;8.20;99.90;;;;;;5018392;28;21122;-80
2021/05/27 03:28:10;;;;;;;2.10;1.67;;;8.30;99.90;;;;;;4977933;28;20412;-80
2021/05/27 03:30:37;;;;;;;1.50;1.40;;;8.30;99.90;;;;;;4893164;28;20416;-80
2021/05/27 03:33:07;;;;;;;1.55;1.45;;;8.40;99.90;;;;;;4894535;28;20408;-76
2021/05/27 03:35:33;;;;;;;1.80;1.70;;;8.50;99.90;;;;;;4924979;28;20415;-78
2021/05/27 03:38:00;;;;;;;1.65;1.55;;;8.50;99.90;;;;;;4981723;28;20871;-80
2021/05/27 03:40:26;;;;;;;1.80;1.70;;;8.70;99.90;;;;;;4975988;28;20422;-75
2021/05/27 03:42:55;;;;;;;1.67;1.58;;;8.60;99.90;;;;;;4894522;29;20764;-77
2021/05/27 03:45:28;;;;;;;1.70;1.60;;;8.60;99.90;;;;;;4914870;28;20402;-77
2021/05/27 03:48:23;;;;;;;1.52;1.42;;;8.70;99.90;;;;;;4933814;28;20412;-80
2021/05/27 03:50:49;;;;;;;1.50;1.40;;;8.70;99.90;;;;;;4910940;28;20412;-77
2021/05/27 03:53:18;;;;;;;1.60;1.50;;;8.70;99.90;;;;;;4911055;28;20979;-74
2021/05/27 03:55:53;;;;;;;1.52;1.42;;;8.70;99.90;;;;;;4939884;28;20413;-77
2021/05/27 04:01:04;;;;;;;1.50;1.40;;;8.90;99.90;;;;;;4914207;28;20396;-79
2021/05/27 04:09:18;;;;;;;1.90;1.80;;;8.80;99.90;;;;;;4986621;28;20404;-79
2021/05/27 04:11:44;;;;;;;1.97;1.87;;;8.90;99.90;;;;;;4899926;28;20397;-77
2021/05/27 04:14:09;;;;;;;1.60;1.50;;;8.90;99.90;;;;;;4911352;28;20517;-83
2021/05/27 04:16:35;;;;;;;1.73;1.63;;;8.90;99.90;;;;;;4910623;28;20400;-83
2021/05/27 04:19:01;;;;;;;1.70;1.60;;;8.80;99.90;;;;;;4994941;28;20921;-85
2021/05/27 04:21:26;;;;;;;1.90;1.80;;;8.90;99.90;;;;;;4901869;29;20498;-80
2021/05/27 04:23:52;;;;;;;1.60;1.50;;;8.90;99.90;;;;;;4910367;28;20402;-77
2021/05/27 04:26:18;;;;;;;3.78;1.63;;;8.90;99.90;;;;;;4935066;28;20447;-84
2021/05/27 04:28:45;;;;;;;1.77;1.67;;;8.90;99.90;;;;;;4904300;28;20416;-77
2021/05/27 04:31:17;;;;;;;1.60;1.50;;;8.90;99.90;;;;;;4994198;28;20892;-77
2021/05/27 04:33:42;;;;;;;1.58;1.48;;;9.00;99.90;;;;;;4904947;28;20423;-78
2021/05/27 04:36:09;;;;;;;1.60;1.50;;;9.10;99.90;;;;;;4964907;28;20498;-77
2021/05/27 04:38:34;;;;;;;1.65;1.40;;;9.10;99.90;;;;;;5005478;28;20410;-75
2021/05/27 04:41:00;;;;;;;2.47;1.77;;;9.40;99.90;;;;;;4995808;28;20419;-75
2021/05/27 04:43:26;;;;;;;1.60;1.50;;;9.50;99.90;;;;;;4908294;28;20488;-76
2021/05/27 04:45:52;;;;;;;1.60;1.50;;;9.60;99.90;;;;;;4898275;29;20411;-76
2021/05/27 04:48:17;;;;;;;1.70;1.60;;;9.50;99.90;;;;;;4965687;28;20415;-75
2021/05/27 04:50:45;;;;;;;1.75;1.65;;;9.60;99.90;;;;;;4911526;28;20392;-77
2021/05/27 04:53:11;;;;;;;2.05;1.88;;;9.60;99.90;;;;;;4977578;28;20471;-76
2021/05/27 04:55:37;;;;;;;2.03;1.80;;;9.70;99.90;;;;;;4909449;28;20490;-76
2021/05/27 04:58:03;;;;;;;1.93;1.80;;;9.70;99.90;;;;;;4987124;28;20390;-76
2021/05/27 05:00:29;;;;;;;2.43;1.80;;;9.80;99.90;;;;;;4994873;28;20448;-77
2021/05/27 05:02:56;;;;;;;1.77;1.67;;;9.90;99.90;;;;;;4925430;28;20396;-79
2021/05/27 05:05:22;;;;;;;2.25;1.95;;;10.00;99.90;;;;;;4893317;28;20410;-77
2021/05/27 05:07:49;;;;;;;1.92;1.70;;;10.00;99.90;;;;;;4928795;28;20501;-82
2021/05/27 05:10:15;;;;;;;1.92;1.83;;;10.00;99.90;;;;;;4898332;28;20475;-80
2021/05/27 05:12:45;;;;;;;1.70;1.60;;;10.10;99.90;;;;;;4981946;28;20423;-78
2021/05/27 05:15:19;;;;;;;1.70;1.60;;;10.10;99.90;;;;;;4912480;28;20403;-79
2021/05/27 05:17:50;;;;;;;2.20;1.85;;;10.20;99.90;;;;;;4912915;28;20900;-81
2021/05/27 05:20:20;;;;;;;1.80;1.67;;;10.20;99.90;;;;;;4978158;28;20408;-83
2021/05/27 05:22:46;;;;;;;2.22;2.05;;;10.10;99.90;;;;;;4902472;28;20912;-79
2021/05/27 05:25:12;;;;;;;1.90;1.80;;;10.10;99.90;;;;;;4946325;28;20472;-80
2021/05/27 05:27:38;;;;;;;2.40;2.20;;;10.10;99.90;;;;;;4925230;28;20923;-79
2021/05/27 05:30:05;;;;;;;1.80;1.70;;;10.20;99.90;;;;;;4978223;28;20416;-74
2021/05/27 05:32:31;;;;;;;1.80;1.70;;;10.30;99.90;;;;;;4993285;28;20411;-81
2021/05/27 05:34:56;;;;;;;2.28;1.77;;;10.30;99.90;;;;;;4902648;28;20498;-78
2021/05/27 05:37:22;;;;;;;1.73;1.63;;;10.50;99.90;;;;;;4931214;28;20904;-78
2021/05/27 05:39:48;;;;;;;2.10;2.00;;;10.60;99.90;;;;;;4978962;28;20400;-82
2021/05/27 05:42:13;;;;;;;1.98;1.88;;;10.60;99.90;;;;;;4911285;28;20984;-78
2021/05/27 05:44:39;;;;;;;3.53;2.10;;;10.70;99.90;;;;;;4924502;28;20406;-80
2021/05/27 05:47:05;;;;;;;1.88;1.67;;;10.70;99.90;;;;;;4913777;28;20459;-78
2021/05/27 05:49:30;;;;;;;2.30;2.10;;;10.70;99.90;;;;;;4896874;28;20394;-79
2021/05/27 05:51:56;;;;;;;1.80;1.70;;;10.80;99.90;;;;;;4909861;28;20928;-82
2021/05/27 05:54:22;;;;;;;2.15;1.90;;;10.70;99.90;;;;;;4894981;28;20417;-79
2021/05/27 05:56:47;;;;;;;1.90;1.80;;;10.70;99.90;;;;;;4970865;28;20431;-79
2021/05/27 05:59:13;;;;;;;2.20;2.00;;;10.80;99.90;;;;;;4918121;28;20480;-78
2021/05/27 06:01:39;;;;;;;2.10;1.90;;;10.80;99.90;;;;;;4979142;28;20406;-83
2021/05/27 06:04:05;;;;;;;2.30;2.10;;;10.80;99.90;;;;;;4917894;28;20463;-82
2021/05/27 06:06:51;;;;;;;1.83;1.73;;;10.80;99.90;;;;;;4907987;28;20908;-80
2021/05/27 06:09:19;;;;;;;2.10;1.98;;;10.80;99.90;;;;;;4981292;28;20464;-79
2021/05/27 06:11:45;;;;;;;2.22;2.13;;;10.80;99.90;;;;;;4896326;28;20411;-86
2021/05/27 06:14:11;;;;;;;2.13;1.93;;;10.80;99.90;;;;;;4978723;28;20406;-84
2021/05/27 06:16:36;;;;;;;2.13;1.92;;;10.90;99.90;;;;;;4926931;28;20405;-78
2021/05/27 06:19:02;;;;;;;2.30;2.10;;;11.00;99.90;;;;;;4980982;28;20407;-84
2021/05/27 06:21:38;;;;;;;2.42;1.98;;;11.00;99.90;;;;;;4918776;28;20508;-79
2021/05/27 06:24:12;;;;;;;2.20;2.10;;;11.10;99.90;;;;;;4902910;28;20398;-79
2021/05/27 06:26:39;;;;;;;2.45;2.13;;;11.10;99.90;;;;;;4923653;28;20392;-77
2021/05/27 06:29:05;;;;;;;1.90;1.80;;;11.30;99.90;;;;;;4964961;28;21165;-79
2021/05/27 06:31:31;;;;;;;1.83;1.73;;;11.40;99.90;;;;;;4958834;28;20392;-78
2021/05/27 06:33:56;;;;;;;1.90;1.80;;;11.50;99.90;;;;;;4977175;28;20419;-78
2021/05/27 06:36:22;;;;;;;2.05;1.95;;;11.60;99.90;;;;;;4939969;28;20396;-78
2021/05/27 06:38:48;;;;;;;1.95;1.85;;;11.70;99.90;;;;;;4977906;28;20405;-80
2021/05/27 06:41:18;;;;;;;2.40;2.03;;;11.80;99.90;;;;;;4964201;28;20744;-79
2021/05/27 06:43:45;;;;;;;2.60;1.90;;;11.80;99.90;;;;;;4911431;28;20431;-77
2021/05/27 06:46:11;;;;;;;2.08;1.88;;;11.90;99.90;;;;;;4975655;28;20396;-78
2021/05/27 06:48:36;;;;;;;2.43;2.23;;;11.90;99.90;;;;;;4908115;28;20422;-77
2021/05/27 06:51:02;;;;;;;2.50;2.13;;;12.00;99.90;;;;;;4910325;28;20935;-78
2021/05/27 06:53:28;;;;;;;2.05;1.85;;;12.10;99.90;;;;;;4917424;29;20840;-77
2021/05/27 06:55:54;;;;;;;1.83;1.73;;;12.00;99.90;;;;;;4912757;28;20418;-81
2021/05/27 06:58:19;;;;;;;2.47;2.28;;;12.10;99.90;;;;;;4995457;28;20422;-85
2021/05/27 07:00:45;;;;;;;2.10;2.00;;;12.20;99.90;;;;;;4916509;28;20398;-77
2021/05/27 07:03:17;;;;;;;1.90;1.80;;;12.20;99.90;;;;;;4960824;28;20513;-76
2021/05/27 07:05:42;;;;;;;2.00;1.90;;;12.30;99.90;;;;;;4903746;28;20411;-76
2021/05/27 07:08:08;;;;;;;1.73;1.63;;;12.40;99.90;;;;;;4925536;28;20416;-81
2021/05/27 07:10:34;;;;;;;2.00;1.90;;;12.30;99.90;;;;;;4906944;28;20431;-75
2021/05/27 07:13:02;;;;;;;2.00;1.90;;;12.40;99.90;;;;;;4975318;28;21009;-77
2021/05/27 07:15:27;;;;;;;2.33;1.90;;;12.50;99.90;;;;;;4943519;28;20411;-76
2021/05/27 07:17:53;;;;;;;1.73;1.63;;;12.40;99.90;;;;;;5008400;28;20418;-76
2021/05/27 07:20:20;;;;;;;1.90;1.80;;;12.50;99.90;;;;;;4975289;28;20416;-75
2021/05/27 07:22:46;;;;;;;2.45;2.10;;;12.50;99.90;;;;;;4905717;29;20416;-81
2021/05/27 07:25:12;;;;;;;1.83;1.73;;;12.70;99.90;;;;;;4909155;28;20408;-81
2021/05/27 07:27:38;;;;;;;1.95;1.85;;;12.80;99.90;;;;;;4909601;28;20542;-79
2021/05/27 07:30:05;;;;;;;2.60;2.17;;;12.80;99.90;;;;;;4974336;28;20439;-74
2021/05/27 07:32:31;;;;;;;2.28;2.10;;;13.00;99.90;;;;;;4990277;28;20426;-75
2021/05/27 07:34:56;;;;;;;1.87;1.77;;;13.20;99.90;;;;;;4910310;28;20435;-75
2021/05/27 07:37:22;;;;;;;2.00;1.90;;;13.40;99.90;;;;;;4979261;28;20877;-75
2021/05/27 07:39:48;;;;;;;2.70;2.10;;;13.40;99.90;;;;;;4974403;28;20408;-74
2021/05/27 07:42:13;;;;;;;1.98;1.88;;;13.70;99.90;;;;;;4990868;28;20404;-73
2021/05/27 07:44:39;;;;;;;1.52;1.42;;;13.80;99.90;;;;;;4973189;28;20402;-79
2021/05/27 07:47:05;;;;;;;2.47;1.73;;;14.00;99.90;;;;;;4958400;28;20423;-74
2021/05/27 07:49:30;;;;;;;1.90;1.80;;;14.00;99.90;;;;;;4911301;28;20404;-75
2021/05/27 07:51:56;;;;;;;1.90;1.80;;;14.00;99.90;;;;;;4986414;28;20413;-76
2021/05/27 07:54:22;;;;;;;1.75;1.65;;;14.00;99.90;;;;;;4971162;28;20404;-74
2021/05/27 07:56:48;;;;;;;1.70;1.60;;;13.90;99.90;;;;;;4978516;28;20430;-74
2021/05/27 07:59:14;;;;;;;2.07;1.77;;;13.80;99.90;;;;;;4978387;28;20396;-76
2021/05/27 08:01:41;;;;;;;2.13;1.90;;;13.90;99.90;;;;;;4976202;28;20393;-75
2021/05/27 08:04:07;;;;;;;2.15;1.90;;;14.00;99.90;;;;;;4977577;28;21015;-74
2021/05/27 08:06:33;;;;;;;1.70;1.60;;;14.00;99.90;;;;;;4915756;29;20405;-75
2021/05/27 08:08:58;;;;;;;1.85;1.70;;;14.00;99.90;;;;;;4909106;28;20774;-74
2021/05/27 08:11:24;;;;;;;2.90;1.83;;;13.90;99.90;;;;;;4996304;28;20400;-73
2021/05/27 08:13:49;;;;;;;1.83;1.73;;;14.00;99.90;;;;;;4908998;28;20765;-77
2021/05/27 08:16:15;;;;;;;1.90;1.80;;;14.10;99.90;;;;;;4921519;28;20483;-76
2021/05/27 08:18:41;;;;;;;1.77;1.67;;;14.10;99.90;;;;;;4915017;28;20417;-78
2021/05/27 08:21:08;;;;;;;1.50;1.40;;;14.10;99.90;;;;;;4920484;28;20408;-77
2021/05/27 08:23:33;;;;;;;1.80;1.70;;;14.20;99.90;;;;;;4922317;28;20403;-73
2021/05/27 08:25:59;;;;;;;1.60;1.50;;;14.10;99.90;;;;;;4930032;28;20406;-73
2021/05/27 08:28:25;;;;;;;2.00;1.67;;;14.10;99.90;;;;;;4921637;28;20407;-75
2021/05/27 08:30:50;;;;;;;1.65;1.55;;;14.00;99.90;;;;;;4910075;28;20411;-74
2021/05/27 08:33:16;;;;;;;1.55;1.45;;;14.00;99.90;;;;;;5013012;28;20407;-79
2021/05/27 08:35:42;;;;;;;1.63;1.52;;;14.10;99.90;;;;;;4999581;28;20897;-77
2021/05/27 08:38:07;;;;;;;3.30;1.60;;;14.10;99.90;;;;;;4955018;28;20414;-73
2021/05/27 08:40:33;;;;;;;1.30;1.30;;;14.10;99.90;;;;;;4912918;29;20439;-73
2021/05/27 08:42:59;;;;;;;1.67;1.57;;;14.10;99.90;;;;;;4917939;28;20404;-76
2021/05/27 08:45:29;;;;;;;1.50;1.40;;;14.20;99.90;;;;;;4896189;28;20542;-72
2021/05/27 08:47:55;;;;;;;1.70;1.60;;;14.30;99.90;;;;;;4910108;29;20577;-74
2021/05/27 08:50:29;;;;;;;1.50;1.40;;;14.20;99.90;;;;;;4917881;28;20411;-74
2021/05/27 08:52:58;;;;;;;1.92;1.55;;;14.10;99.90;;;;;;4901436;28;20931;-74
2021/05/27 08:55:23;;;;;;;2.50;1.40;;;14.10;99.90;;;;;;4913016;28;20431;-74
2021/05/27 08:57:49;;;;;;;4.10;1.50;;;14.00;99.90;;;;;;4995183;28;20400;-76
2021/05/27 09:00:16;;;;;;;1.45;1.35;;;14.00;99.90;;;;;;4920134;28;20458;-74
2021/05/27 09:03:15;;;;;;;1.63;1.52;;;14.10;99.90;;;;;;4925032;28;20418;-73
2021/05/27 09:05:41;;;;;;;1.48;1.38;;;14.20;99.90;;;;;;4960132;28;20396;-75
2021/05/27 09:08:08;;;;;;;1.50;1.40;;;14.20;99.90;;;;;;5004404;28;20425;-74
2021/05/27 09:10:47;;;;;;;1.40;1.30;;;14.20;99.90;;;;;;4994110;28;20400;-74
2021/05/27 09:13:17;;;;;;;2.57;1.83;;;14.20;99.90;;;;;;4904809;28;20410;-73
2021/05/27 09:15:43;;;;;;;1.75;1.65;;;14.20;99.90;;;;;;4986406;28;20895;-73
2021/05/27 09:18:09;;;;;;;1.60;1.50;;;14.20;99.90;;;;;;4976582;28;20408;-76
2021/05/27 09:20:35;;;;;;;1.47;1.37;;;14.20;99.90;;;;;;4916994;28;20406;-74
2021/05/27 09:23:17;;;;;;;1.48;1.38;;;14.10;99.90;;;;;;4901919;28;20439;-74
2021/05/27 09:25:47;;;;;;;1.20;1.20;;;14.00;99.90;;;;;;4924836;28;20402;-73
2021/05/27 09:28:28;;;;;;;1.40;1.30;;;14.00;99.90;;;;;;4914077;28;20483;-73
2021/05/27 09:31:04;;;;;;;1.20;1.17;;;14.10;99.90;;;;;;4898035;28;20403;-73
2021/05/27 09:33:37;;;;;;;1.50;1.33;;;14.20;99.90;;;;;;4922165;28;20432;-74
2021/05/27 09:36:09;;;;;;;1.50;1.40;;;14.20;99.90;;;;;;4991397;28;20443;-74
2021/05/27 09:38:56;;;;;;;1.40;1.30;;;14.10;99.90;;;;;;4994602;28;20412;-75
2021/05/27 09:41:26;;;;;;;1.52;1.42;;;14.20;99.90;;;;;;4932328;28;20422;-73
2021/05/27 09:44:13;;;;;;;1.53;1.20;;;14.20;99.90;;;;;;4915706;28;20406;-74
2021/05/27 09:46:49;;;;;;;1.58;1.38;;;14.20;99.90;;;;;;4942474;28;20423;-74
2021/05/27 09:49:15;;;;;;;1.60;1.50;;;14.20;99.90;;;;;;4925763;28;20425;-74
2021/05/27 09:51:41;;;;;;;1.50;1.40;;;14.30;99.90;;;;;;4915881;28;20470;-74
2021/05/27 09:54:07;;;;;;;1.50;1.40;;;14.30;99.90;;;;;;4908469;28;20400;-73
2021/05/27 09:56:37;;;;;;;1.50;1.40;;;14.20;99.90;;;;;;4998725;28;20391;-74
2021/05/27 09:59:03;;;;;;;3.00;1.27;;;14.20;99.90;;;;;;4968836;28;20774;-74
2021/05/27 10:01:29;;;;;;;1.35;1.25;;;14.20;99.90;;;;;;4909928;28;20400;-74
2021/05/27 10:04:14;;;;;;;3.33;1.40;;;14.20;99.90;;;;;;4897960;28;20504;-74
2021/05/27 10:06:40;;;;;;;1.30;1.20;;;14.20;99.90;;;;;;4895532;28;20467;-74
2021/05/27 10:09:08;;;;;;;1.25;1.15;;;14.30;99.90;;;;;;4998852;28;20899;-75
2021/05/27 10:11:34;;;;;;;1.65;1.30;;;14.40;99.90;;;;;;4894550;28;20435;-74
2021/05/27 10:14:00;;;;;;;1.67;1.40;;;14.60;99.90;;;;;;4894078;28;20900;-74
2021/05/27 10:16:25;;;;;;;1.50;1.40;;;15.10;99.90;;;;;;4912539;28;20499;-74
2021/05/27 10:18:52;;;;;;;1.23;1.20;;;15.70;99.90;;;;;;4976531;28;20479;-74
2021/05/27 10:21:18;;;;;;;11.53;1.90;;;15.80;99.90;;;;;;4991111;28;20458;-74
2021/05/27 10:23:44;;;;;;;1.40;1.23;;;15.80;99.90;;;;;;4920163;28;21145;-74
2021/05/27 10:26:10;;;;;;;2.20;1.60;;;15.80;99.90;;;;;;4991946;28;20408;-74
2021/05/27 10:28:36;;;;;;;2.20;1.20;;;15.60;99.90;;;;;;4910802;28;20475;-73
2021/05/27 10:31:02;;;;;;;1.05;1.00;;;15.50;99.90;;;;;;4909469;28;20485;-73
2021/05/27 10:33:36;;;;;;;1.08;1.08;;;15.40;99.90;;;;;;4937777;28;20406;-75
2021/05/27 10:36:02;;;;;;;1.00;1.00;;;15.20;99.90;;;;;;4901833;28;20938;-74
2021/05/27 10:38:37;;;;;;;1.10;1.10;;;15.00;99.90;;;;;;4979015;28;20408;-74
2021/05/27 10:41:02;;;;;;;1.00;1.00;;;15.00;99.90;;;;;;4927421;28;20416;-73
2021/05/27 10:43:28;;;;;;;1.10;1.00;;;15.00;99.90;;;;;;4977375;28;20402;-73
2021/05/27 10:45:57;;;;;;;1.27;1.17;;;15.00;99.90;;;;;;4912713;28;21101;-74
2021/05/27 10:48:24;;;;;;;1.40;1.30;;;15.00;99.90;;;;;;4930289;28;20814;-73
2021/05/27 10:53:34;;;;;;;1.50;1.40;;;15.10;99.90;;;;;;4926817;28;20483;-74
2021/05/27 10:56:06;;;;;;;1.50;1.40;;;15.10;99.90;;;;;;4931235;28;20413;-75
2021/05/27 10:59:12;;;;;;;2.40;1.70;;;15.10;99.90;;;;;;4910601;28;20438;-74
2021/05/27 11:01:40;;;;;;;2.58;1.42;;;14.90;99.90;;;;;;4922989;28;20411;-74
2021/05/27 11:04:06;;;;;;;1.50;1.40;;;14.70;99.90;;;;;;4923416;28;20419;-75
2021/05/27 11:06:41;;;;;;;1.43;1.33;;;14.50;99.90;;;;;;4998935;28;20430;-76
2021/05/27 11:09:07;;;;;;;1.40;1.30;;;14.50;99.90;;;;;;4923880;29;20419;-75
2021/05/27 11:11:40;;;;;;;1.73;1.63;;;14.50;99.90;;;;;;4939308;28;20408;-74
2021/05/27 11:14:17;;;;;;;1.50;1.40;;;14.50;99.90;;;;;;4967965;28;20396;-76
2021/05/27 11:17:21;;;;;;;1.47;1.37;;;14.50;99.90;;;;;;4922247;28;20407;-74
2021/05/27 11:19:55;;;;;;;1.50;1.40;;;14.60;99.90;;;;;;5004819;28;20511;-74
2021/05/27 11:22:34;;;;;;;1.20;1.20;;;14.80;99.90;;;;;;4936385;28;20767;-74
2021/05/27 11:27:38;;;;;;;1.20;1.20;;;15.10;99.90;;;;;;4939247;28;20526;-77
2021/05/27 11:30:27;;;;;;;1.30;1.30;;;14.90;99.90;;;;;;4942019;28;20457;-75
2021/05/27 11:33:02;;;;;;;0.95;0.95;;;14.90;99.90;;;;;;4912550;28;20408;-74
2021/05/27 11:35:29;;;;;;;1.10;1.10;;;14.70;99.90;;;;;;4995001;28;20428;-78
2021/05/27 11:37:55;;;;;;;0.90;0.90;;;14.60;99.90;;;;;;4976827;28;20414;-78
2021/05/27 11:40:22;;;;;;;0.87;0.87;;;14.40;99.90;;;;;;4906469;28;21070;-78
2021/05/27 11:42:52;;;;;;;0.80;0.80;;;14.10;99.90;;;;;;5012831;28;20450;-75
2021/05/27 11:45:20;;;;;;;0.98;0.98;;;13.90;99.90;;;;;;4919298;28;20419;-77
2021/05/27 11:48:09;;;;;;;0.80;0.80;;;13.80;99.90;;;;;;4978215;28;20481;-74
2021/05/27 11:50:35;;;;;;;0.82;0.82;;;13.80;99.90;;;;;;4924779;29;20418;-76
2021/05/27 11:53:04;;;;;;;0.73;0.73;;;13.60;99.90;;;;;;4904147;28;20483;-79
2021/05/27 11:55:31;;;;;;;0.80;0.80;;;13.50;99.90;;;;;;4975719;28;20415;-75
2021/05/27 11:57:56;;;;;;;0.95;0.90;;;13.50;99.90;;;;;;4951401;28;20414;-75
2021/05/27 12:00:23;;;;;;;0.87;0.80;;;13.50;99.90;;;;;;4996781;28;20499;-76
2021/05/27 12:02:55;;;;;;;0.70;0.70;;;13.60;99.90;;;;;;4913362;28;20464;-76
2021/05/27 12:05:25;;;;;;;0.77;0.77;;;13.70;99.90;;;;;;4890282;28;20418;-75
2021/05/27 12:08:13;;;;;;;0.60;0.60;;;13.80;99.90;;;;;;4918487;28;20439;-75
2021/05/27 12:10:49;;;;;;;0.30;0.30;;;14.00;99.90;;;;;;4915743;29;20400;-74
2021/05/27 12:13:16;;;;;;;0.55;0.55;;;14.30;99.90;;;;;;4909494;28;20420;-75
2021/05/27 12:15:42;;;;;;;0.47;0.47;;;14.40;99.90;;;;;;4917138;28;20415;-76
2021/05/27 12:18:12;;;;;;;0.40;0.40;;;14.80;99.90;;;;;;4987123;28;20495;-76
2021/05/27 12:20:39;;;;;;;0.40;0.40;;;15.00;99.90;;;;;;4912902;29;20440;-76
2021/05/27 12:23:16;;;;;;;0.40;0.40;;;15.30;99.90;;;;;;4896246;28;20444;-77
2021/05/27 12:25:43;;;;;;;0.40;0.40;;;15.40;99.90;;;;;;4984911;28;20867;-77
2021/05/27 12:28:13;;;;;;;0.50;0.50;;;15.60;99.90;;;;;;4927662;28;20513;-75
2021/05/27 12:30:43;;;;;;;1.77;1.60;;;15.70;99.90;;;;;;4926530;28;20410;-76
2021/05/27 12:33:10;;;;;;;0.60;0.60;;;15.90;99.90;;;;;;4909780;28;20393;-75
2021/05/27 12:35:39;;;;;;;1.10;1.00;;;16.10;99.90;;;;;;4910142;28;20486;-75
2021/05/27 12:38:06;;;;;;;1.20;1.10;;;15.90;99.90;;;;;;4961238;28;20423;-75
2021/05/27 12:40:37;;;;;;;0.50;0.50;;;16.00;99.90;;;;;;4976152;28;20419;-75
2021/05/27 12:43:04;;;;;;;0.80;0.80;;;16.30;99.90;;;;;;4993683;28;23153;-76
2021/05/27 12:45:37;;;;;;;0.50;0.50;;;16.60;99.90;;;;;;4909182;28;20499;-75
2021/05/27 12:48:25;;;;;;;0.50;0.50;;;17.10;99.90;;;;;;4911676;28;20754;-75
2021/05/27 12:50:54;;;;;;;0.50;0.50;;;17.40;99.90;;;;;;4883770;28;20416;-75
2021/05/27 12:53:36;;;;;;;0.63;0.57;;;17.60;99.90;;;;;;4948643;28;20404;-74
2021/05/27 12:56:14;;;;;;;6.87;0.53;;;17.90;99.90;;;;;;4904505;28;20404;-75
2021/05/27 12:59:05;;;;;;;0.47;0.47;;;18.00;99.90;;;;;;4937659;28;21106;-75
2021/05/27 13:01:34;;;;;;;0.47;0.43;;;18.30;99.90;;;;;;4946228;28;20409;-74
2021/05/27 13:04:01;;;;;;;0.40;0.40;;;18.60;99.90;;;;;;4963039;28;20409;-75
2021/05/27 13:06:31;;;;;;;0.40;0.40;;;18.90;99.90;;;;;;4917103;28;21085;-74
2021/05/27 13:08:58;;;;;;;0.60;0.60;;;18.80;99.90;;;;;;4962501;28;20430;-75
2021/05/27 13:11:25;;;;;;;0.40;0.40;;;18.80;99.90;;;;;;4895164;28;20428;-74
2021/05/27 13:13:51;;;;;;;0.32;0.32;;;18.70;99.90;;;;;;5015298;28;20407;-75